sensor_id;sensor_type;location;lat;lon;timestamp;pressure;altitude;pressure_sealevel;temperature;humidity
4123;BME280;2075;51.062;6.920;2023-04-28T00:00:37;93910.13;;;-144.48;56.14
4123;BME280;2075;51.062;6.920;2023-04-28T00:03:43;93906.06;;;-144.48;56.94
4123;BME280;2075;51.062;6.920;2023-04-28T00:06:47;93877.63;;;-144.48;56.57
4123;BME280;2075;51.062;6.920;2023-04-28T00:09:52;94123.44;;;-144.48;56.88
4123;BME280;2075;51.062;6.920;2023-04-28T00:12:57;93879.66;;;-144.48;56.53
4123;BME280;2075;51.062;6.920;2023-04-28T00:16:03;93908.09;;;-144.48;57.17
4123;BME280;2075;51.062;6.920;2023-04-28T00:19:09;93887.78;;;-144.48;61.06
4123;BME280;2075;51.062;6.920;2023-04-28T00:22:14;93879.66;;;-144.48;63.11
4123;BME280;2075;51.062;6.920;2023-04-28T00:25:18;93914.19;;;-144.48;62.67
4123;BME280;2075;51.062;6.920;2023-04-28T00:28:23;93940.59;;;-144.48;65.64
4123;BME280;2075;51.062;6.920;2023-04-28T00:31:27;93973.09;;;-144.48;66.05
4123;BME280;2075;51.062;6.920;2023-04-28T00:34:33;93542.44;;;-144.48;65.31
4123;BME280;2075;51.062;6.920;2023-04-28T00:37:39;93940.59;;;-144.48;65.91
4123;BME280;2075;51.062;6.920;2023-04-28T00:40:43;93869.47;;;-144.48;65.23
4123;BME280;2075;51.062;6.920;2023-04-28T00:43:50;93897.94;;;-144.48;65.78
4123;BME280;2075;51.062;6.920;2023-04-28T00:46:57;93973.09;;;-144.48;67.00
4123;BME280;2075;51.062;6.920;2023-04-28T00:50:04;93918.25;;;-144.48;65.29
4123;BME280;2075;51.062;6.920;2023-04-28T00:53:09;93948.72;;;-144.48;66.30
4123;BME280;2075;51.062;6.920;2023-04-28T00:56:14;93936.53;;;-144.48;66.19
4123;BME280;2075;51.062;6.920;2023-04-28T00:59:18;94080.75;;;-144.48;65.94
4123;BME280;2075;51.062;6.920;2023-04-28T01:02:22;93950.75;;;-144.48;66.50
4123;BME280;2075;51.062;6.920;2023-04-28T01:05:29;93956.84;;;-144.48;67.83
4123;BME280;2075;51.062;6.920;2023-04-28T01:08:36;93924.34;;;-144.48;67.69
4123;BME280;2075;51.062;6.920;2023-04-28T01:11:41;93967.00;;;-144.48;69.05
4123;BME280;2075;51.062;6.920;2023-04-28T01:14:46;94009.66;;;-144.48;70.71
4123;BME280;2075;51.062;6.920;2023-04-28T01:17:52;93981.22;;;-144.48;72.22
4123;BME280;2075;51.062;6.920;2023-04-28T01:20:58;93981.22;;;-144.48;72.80
4123;BME280;2075;51.062;6.920;2023-04-28T01:24:04;93975.13;;;-144.48;74.93
4123;BME280;2075;51.062;6.920;2023-04-28T01:27:09;94164.06;;;-144.48;76.31
4123;BME280;2075;51.062;6.920;2023-04-28T01:30:13;93975.13;;;-144.48;75.81
4123;BME280;2075;51.062;6.920;2023-04-28T01:33:17;93962.94;;;-144.48;77.19
4123;BME280;2075;51.062;6.920;2023-04-28T01:36:22;94025.91;;;-144.48;75.88
4123;BME280;2075;51.062;6.920;2023-04-28T01:39:28;93983.25;;;-144.48;77.68
4123;BME280;2075;51.062;6.920;2023-04-28T01:42:31;93975.13;;;-144.48;78.00
4123;BME280;2075;51.062;6.920;2023-04-28T01:45:39;93977.16;;;-144.48;78.96
4123;BME280;2075;51.062;6.920;2023-04-28T01:48:44;93995.44;;;-144.48;79.94
4123;BME280;2075;51.062;6.920;2023-04-28T01:51:49;93922.31;;;-144.48;80.18
4123;BME280;2075;51.062;6.920;2023-04-28T01:55:14;93977.16;;;-144.48;80.97
4123;BME280;2075;51.062;6.920;2023-04-28T01:58:19;93977.16;;;-144.48;81.07
4123;BME280;2075;51.062;6.920;2023-04-28T02:01:22;93995.44;;;-144.48;82.69
4123;BME280;2075;51.062;6.920;2023-04-28T02:04:27;93920.28;;;-144.48;84.95
4123;BME280;2075;51.062;6.920;2023-04-28T02:07:31;94017.78;;;-144.48;84.23
4123;BME280;2075;51.062;6.920;2023-04-28T02:10:37;93940.59;;;-144.48;86.65
4123;BME280;2075;51.062;6.920;2023-04-28T02:13:44;93983.25;;;-144.48;89.63
4123;BME280;2075;51.062;6.920;2023-04-28T02:16:51;93973.09;;;-144.48;90.05
4123;BME280;2075;51.062;6.920;2023-04-28T02:19:56;93916.22;;;-144.48;91.32
4123;BME280;2075;51.062;6.920;2023-04-28T02:23:00;93839.00;;;-144.48;94.42
4123;BME280;2075;51.062;6.920;2023-04-28T02:26:06;93826.81;;;-144.48;94.76
4123;BME280;2075;51.062;6.920;2023-04-28T02:29:11;93769.94;;;-144.48;96.28
4123;BME280;2075;51.062;6.920;2023-04-28T02:32:15;93229.66;;;-144.48;100.00
4123;BME280;2075;51.062;6.920;2023-04-28T02:35:20;93189.03;;;-144.48;100.00
4123;BME280;2075;51.062;6.920;2023-04-28T02:38:25;91095.66;;;-144.48;100.00
4123;BME280;2075;51.062;6.920;2023-04-28T02:41:32;91219.50;;;-144.48;100.00
4123;BME280;2075;51.062;6.920;2023-04-28T02:44:36;90417.78;;;-144.48;100.00
4123;BME280;2075;51.062;6.920;2023-04-28T02:47:41;87206.72;;;-144.48;100.00
4123;BME280;2075;51.062;6.920;2023-04-28T02:50:46;84336.97;;;-144.48;100.00
4123;BME280;2075;51.062;6.920;2023-04-28T02:53:50;86170.81;;;-144.48;100.00
4123;BME280;2075;51.062;6.920;2023-04-28T02:56:57;88188.19;;;-144.48;100.00
4123;BME280;2075;51.062;6.920;2023-04-28T03:00:01;87618.34;;;-144.48;100.00
4123;BME280;2075;51.062;6.920;2023-04-28T03:03:05;87819.09;;;-144.48;100.00
4123;BME280;2075;51.062;6.920;2023-04-28T03:06:10;87500.72;;;-144.48;100.00
4123;BME280;2075;51.062;6.920;2023-04-28T03:09:14;83064.97;;;-144.48;100.00
4123;BME280;2075;51.062;6.920;2023-04-28T03:12:20;78802.78;;;-144.48;100.00
4123;BME280;2075;51.062;6.920;2023-04-28T03:15:25;75362.09;;;-144.48;100.00
4123;BME280;2075;51.062;6.920;2023-04-28T03:18:29;69872.59;;;-144.48;100.00
4123;BME280;2075;51.062;6.920;2023-04-28T03:21:33;72356.81;;;-144.48;100.00
4123;BME280;2075;51.062;6.920;2023-04-28T03:24:38;79747.47;;;-144.48;100.00
4123;BME280;2075;51.062;6.920;2023-04-28T03:27:46;80016.53;;;-144.48;100.00
4123;BME280;2075;51.062;6.920;2023-04-28T03:30:50;70108.63;;;-144.48;100.00
4123;BME280;2075;51.062;6.920;2023-04-28T03:33:55;64033.44;;;-144.48;100.00
4123;BME280;2075;51.062;6.920;2023-04-28T03:37:01;59911.53;;;-144.48;100.00
4123;BME280;2075;51.062;6.920;2023-04-28T03:40:06;65580.44;;;-144.48;100.00
4123;BME280;2075;51.062;6.920;2023-04-28T03:43:12;58881.84;;;-144.48;100.00
4123;BME280;2075;51.062;6.920;2023-04-28T03:46:18;59139.22;;;-144.48;100.00
4123;BME280;2075;51.062;6.920;2023-04-28T03:49:23;56051.78;;;-144.48;100.00
4123;BME280;2075;51.062;6.920;2023-04-28T03:52:27;53481.06;;;-144.48;100.00
4123;BME280;2075;51.062;6.920;2023-04-28T03:55:32;46549.84;;;-144.48;100.00
4123;BME280;2075;51.062;6.920;2023-04-28T03:58:37;40144.72;;;-144.48;100.00
4123;BME280;2075;51.062;6.920;2023-04-28T04:01:41;40912.69;;;-144.48;100.00
4123;BME280;2075;51.062;6.920;2023-04-28T04:04:46;37330.31;;;-144.48;100.00
4123;BME280;2075;51.062;6.920;2023-04-28T04:07:50;35284.97;;;-144.48;100.00
4123;BME280;2075;51.062;6.920;2023-04-28T04:10:54;33240.88;;;-144.48;100.00
4123;BME280;2075;51.062;6.920;2023-04-28T04:14:02;32985.44;;;-144.48;100.00
4123;BME280;2075;51.062;6.920;2023-04-28T04:17:08;33496.31;;;-144.48;100.00
4123;BME280;2075;51.062;6.920;2023-04-28T04:20:12;29411.56;;;-144.48;100.00
4123;BME280;2075;51.062;6.920;2023-04-28T04:23:17;27881.03;;;-144.48;100.00
4123;BME280;2075;51.062;6.920;2023-04-28T04:26:21;30687.50;;;-144.48;100.00
4123;BME280;2075;51.062;6.920;2023-04-28T04:29:27;30177.06;;;-144.48;100.00
4123;BME280;2075;51.062;6.920;2023-04-28T04:32:31;31708.63;;;-144.48;100.00
4123;BME280;2075;51.062;6.920;2023-04-28T04:35:35;31708.63;;;-144.48;100.00
4123;BME280;2075;51.062;6.920;2023-04-28T04:38:40;32985.44;;;-144.48;100.00
4123;BME280;2075;51.062;6.920;2023-04-28T04:41:44;32985.44;;;-144.48;100.00
4123;BME280;2075;51.062;6.920;2023-04-28T04:44:51;33496.31;;;-144.48;100.00
4123;BME280;2075;51.062;6.920;2023-04-28T04:47:56;34773.81;;;-144.48;100.00
4123;BME280;2075;51.062;6.920;2023-04-28T04:51:01;39376.91;;;-144.48;100.00
4123;BME280;2075;51.062;6.920;2023-04-28T04:54:05;40144.72;;;-144.48;100.00
4123;BME280;2075;51.062;6.920;2023-04-28T04:57:10;43986.31;;;-144.48;100.00
4123;BME280;2075;51.062;6.920;2023-04-28T05:00:17;49371.94;;;-144.48;100.00
4123;BME280;2075;51.062;6.920;2023-04-28T05:03:23;51169.06;;;-144.48;100.00
4123;BME280;2075;51.062;6.920;2023-04-28T05:06:27;54252.06;;;-144.48;100.00
4123;BME280;2075;51.062;6.920;2023-04-28T05:09:33;61456.66;;;-144.48;100.00
4123;BME280;2075;51.062;6.920;2023-04-28T05:12:38;59139.22;;;-144.48;100.00
4123;BME280;2075;51.062;6.920;2023-04-28T05:15:45;58109.78;;;-144.48;100.00
4123;BME280;2075;51.062;6.920;2023-04-28T05:18:49;55280.38;;;-144.48;100.00
4123;BME280;2075;51.062;6.920;2023-04-28T05:21:54;51939.56;;;-144.48;100.00
4123;BME280;2075;51.062;6.920;2023-04-28T05:24:59;46806.28;;;-144.48;100.00
4123;BME280;2075;51.062;6.920;2023-04-28T05:28:04;41936.91;;;-144.48;100.00
4123;BME280;2075;51.062;6.920;2023-04-28T05:31:43;35540.56;;;-144.48;100.00
4123;BME280;2075;51.062;6.920;2023-04-28T05:34:51;27626.03;;;-144.48;100.00
4123;BME280;2075;51.062;6.920;2023-04-28T05:37:55;31453.31;;;-144.48;100.00
4123;BME280;2075;51.062;6.920;2023-04-28T05:41:00;31963.94;;;-144.48;100.00
4123;BME280;2075;51.062;6.920;2023-04-28T05:44:07;34262.75;;;-144.48;100.00
4123;BME280;2075;51.062;6.920;2023-04-28T05:47:15;36051.84;;;-144.48;100.00
4123;BME280;2075;51.062;6.920;2023-04-28T05:50:19;36307.50;;;-144.48;100.00
4123;BME280;2075;51.062;6.920;2023-04-28T05:53:25;38865.16;;;-144.48;100.00
4123;BME280;2075;51.062;6.920;2023-04-28T05:56:30;39888.75;;;-144.48;100.00
4123;BME280;2075;51.062;6.920;2023-04-28T05:59:35;41936.91;;;-144.48;100.00
4123;BME280;2075;51.062;6.920;2023-04-28T06:02:59;46036.97;;;-144.48;100.00
4123;BME280;2075;51.062;6.920;2023-04-28T06:06:23;53481.06;;;-144.48;100.00
4123;BME280;2075;51.062;6.920;2023-04-28T06:09:48;49885.31;;;-144.48;100.00
4123;BME280;2075;51.062;6.920;2023-04-28T06:13:12;49885.31;;;-144.48;100.00
4123;BME280;2075;51.062;6.920;2023-04-28T06:16:37;49628.63;;;-144.48;100.00
4123;BME280;2075;51.062;6.920;2023-04-28T06:36:37;61714.25;;;-144.48;100.00
4123;BME280;2075;51.062;6.920;2023-04-28T06:39:23;85761.41;;;-144.48;100.00
4123;BME280;2075;51.062;6.920;2023-04-28T06:42:08;90119.47;;;-144.48;100.00
4123;BME280;2075;51.062;6.920;2023-04-28T06:44:59;91599.09;;;-144.48;100.00
4123;BME280;2075;51.062;6.920;2023-04-28T06:47:45;91873.16;;;-144.48;100.00
4123;BME280;2075;51.062;6.920;2023-04-28T06:50:30;92062.00;;;-144.48;100.00
4123;BME280;2075;51.062;6.920;2023-04-28T06:53:18;92730.03;;;-144.48;100.00
4123;BME280;2075;51.062;6.920;2023-04-28T06:56:04;92862.03;;;-144.48;100.00
4123;BME280;2075;51.062;6.920;2023-04-28T06:58:50;93018.41;;;-144.48;100.00
4123;BME280;2075;51.062;6.920;2023-04-28T07:01:36;93282.44;;;-144.48;100.00
4123;BME280;2075;51.062;6.920;2023-04-28T07:04:21;93379.94;;;-144.48;99.00
4123;BME280;2075;51.062;6.920;2023-04-28T07:07:06;93333.22;;;-144.48;99.50
4123;BME280;2075;51.062;6.920;2023-04-28T07:09:54;93266.22;;;-144.48;99.60
4123;BME280;2075;51.062;6.920;2023-04-28T07:12:48;93438.84;;;-144.48;98.30
4123;BME280;2075;51.062;6.920;2023-04-28T07:15:37;93211.38;;;-144.48;100.00
4123;BME280;2075;51.062;6.920;2023-04-28T07:18:27;92929.06;;;-144.48;100.00
4123;BME280;2075;51.062;6.920;2023-04-28T07:21:13;92129.00;;;-144.48;100.00
4123;BME280;2075;51.062;6.920;2023-04-28T07:24:00;93083.41;;;-144.48;100.00
4123;BME280;2075;51.062;6.920;2023-04-28T07:26:47;93312.91;;;-144.48;99.56
4123;BME280;2075;51.062;6.920;2023-04-28T07:29:32;93187.00;;;-144.48;100.00
4123;BME280;2075;51.062;6.920;2023-04-28T07:32:18;92417.31;;;-144.48;100.00
4123;BME280;2075;51.062;6.920;2023-04-28T07:35:04;90210.78;;;-144.48;100.00
4123;BME280;2075;51.062;6.920;2023-04-28T07:37:50;91560.53;;;-144.48;100.00
4123;BME280;2075;51.062;6.920;2023-04-28T07:40:35;92340.16;;;-144.48;100.00
4123;BME280;2075;51.062;6.920;2023-04-28T07:43:22;90561.88;;;-144.48;100.00
4123;BME280;2075;51.062;6.920;2023-04-28T07:46:08;88025.94;;;-144.48;100.00
4123;BME280;2075;51.062;6.920;2023-04-28T07:48:53;86732.31;;;-144.48;100.00
4123;BME280;2075;51.062;6.920;2023-04-28T07:51:39;86590.41;;;-144.48;100.00
4123;BME280;2075;51.062;6.920;2023-04-28T07:54:24;90557.81;;;-144.48;100.00
4123;BME280;2075;51.062;6.920;2023-04-28T07:57:10;92983.91;;;-144.48;100.00
4123;BME280;2075;51.062;6.920;2023-04-28T07:59:57;93286.50;;;-144.48;99.01
4123;BME280;2075;51.062;6.920;2023-04-28T08:02:42;93347.44;;;-144.48;97.37
4123;BME280;2075;51.062;6.920;2023-04-28T08:05:27;93461.19;;;-144.48;94.53
4123;BME280;2075;51.062;6.920;2023-04-28T08:08:13;93467.28;;;-144.48;93.42
4123;BME280;2075;51.062;6.920;2023-04-28T08:10:58;93518.06;;;-144.48;92.13
4123;BME280;2075;51.062;6.920;2023-04-28T08:13:44;93518.06;;;-144.48;93.95
4123;BME280;2075;51.062;6.920;2023-04-28T08:16:31;93446.97;;;-144.48;94.93
4123;BME280;2075;51.062;6.920;2023-04-28T08:19:17;93461.19;;;-144.48;94.48
4123;BME280;2075;51.062;6.920;2023-04-28T08:22:03;93422.59;;;-144.48;95.09
4123;BME280;2075;51.062;6.920;2023-04-28T08:24:50;93394.16;;;-144.48;95.01
4123;BME280;2075;51.062;6.920;2023-04-28T08:27:35;93314.94;;;-144.48;95.29
4123;BME280;2075;51.062;6.920;2023-04-28T08:30:23;93097.63;;;-144.48;98.35
4123;BME280;2075;51.062;6.920;2023-04-28T08:33:10;92918.91;;;-144.48;99.12
4123;BME280;2075;51.062;6.920;2023-04-28T08:35:55;93099.66;;;-144.48;96.78
4123;BME280;2075;51.062;6.920;2023-04-28T08:38:42;93505.88;;;-144.48;90.99
4123;BME280;2075;51.062;6.920;2023-04-28T08:41:31;93386.03;;;-144.48;87.70
4123;BME280;2075;51.062;6.920;2023-04-28T08:44:17;93457.13;;;-144.48;82.68
4123;BME280;2075;51.062;6.920;2023-04-28T08:47:03;93371.81;;;-144.48;81.19
4123;BME280;2075;51.062;6.920;2023-04-28T08:49:51;93335.25;;;-144.48;78.28
4123;BME280;2075;51.062;6.920;2023-04-28T08:52:39;93451.03;;;-144.48;79.19
4123;BME280;2075;51.062;6.920;2023-04-28T08:55:26;93444.94;;;-144.48;82.91
4123;BME280;2075;51.062;6.920;2023-04-28T08:58:12;93499.78;;;-144.48;87.18
4123;BME280;2075;51.062;6.920;2023-04-28T09:00:58;93509.94;;;-144.48;88.60
4123;BME280;2075;51.062;6.920;2023-04-28T09:03:45;93489.63;;;-144.48;88.81
4123;BME280;2075;51.062;6.920;2023-04-28T09:06:34;93473.38;;;-144.48;89.23
4123;BME280;2075;51.062;6.920;2023-04-28T09:09:21;93477.44;;;-144.48;90.49
4123;BME280;2075;51.062;6.920;2023-04-28T09:12:07;93442.91;;;-144.48;91.47
4123;BME280;2075;51.062;6.920;2023-04-28T09:14:57;93412.44;;;-144.48;89.34
4123;BME280;2075;51.062;6.920;2023-04-28T09:17:49;93455.09;;;-144.48;89.17
4123;BME280;2075;51.062;6.920;2023-04-28T09:20:37;93412.44;;;-144.48;90.47
4123;BME280;2075;51.062;6.920;2023-04-28T09:23:24;93217.47;;;-144.48;94.86
4123;BME280;2075;51.062;6.920;2023-04-28T09:26:09;93117.94;;;-144.48;94.75
4123;BME280;2075;51.062;6.920;2023-04-28T09:29:10;92900.63;;;-144.48;96.74
4123;BME280;2075;51.062;6.920;2023-04-28T09:32:12;92979.84;;;-144.48;94.11
4123;BME280;2075;51.062;6.920;2023-04-28T09:34:58;93079.34;;;-144.48;92.80
4123;BME280;2075;51.062;6.920;2023-04-28T09:37:44;93030.59;;;-144.48;94.95
4123;BME280;2075;51.062;6.920;2023-04-28T09:40:31;92451.84;;;-144.48;98.50
4123;BME280;2075;51.062;6.920;2023-04-28T09:43:22;91146.41;;;-144.48;100.00
4123;BME280;2075;51.062;6.920;2023-04-28T09:46:09;92498.53;;;-144.48;97.60
4123;BME280;2075;51.062;6.920;2023-04-28T09:48:59;91548.34;;;-144.48;100.00
4123;BME280;2075;51.062;6.920;2023-04-28T09:51:45;82562.78;;;-144.48;100.00
4123;BME280;2075;51.062;6.920;2023-04-28T09:54:32;58881.84;;;-144.48;100.00
4123;BME280;2075;51.062;6.920;2023-04-28T09:57:20;62229.50;;;-144.48;100.00
4123;BME280;2075;51.062;6.920;2023-04-28T10:00:07;54766.19;;;-144.48;100.00
4123;BME280;2075;51.062;6.920;2023-04-28T10:02:53;40144.72;;;-144.48;100.00
4123;BME280;2075;51.062;6.920;2023-04-28T10:05:39;31198.03;;;-144.48;100.00
4123;BME280;2075;51.062;6.920;2023-04-28T10:08:26;34007.25;;;-144.48;100.00
4123;BME280;2075;51.062;6.920;2023-04-28T10:11:11;47062.78;;;-144.48;100.00
4123;BME280;2075;51.062;6.920;2023-04-28T10:13:58;50655.50;;;-144.48;100.00
4123;BME280;2075;51.062;6.920;2023-04-28T10:16:44;41168.72;;;-144.48;100.00
4123;BME280;2075;51.062;6.920;2023-04-28T10:19:30;35796.19;;;-144.48;100.00
4123;BME280;2075;51.062;6.920;2023-04-28T10:22:31;38353.47;;;-144.48;100.00
4123;BME280;2075;51.062;6.920;2023-04-28T10:25:26;49371.94;;;-144.48;100.00
4123;BME280;2075;51.062;6.920;2023-04-28T10:28:12;43473.84;;;-144.48;100.00
4123;BME280;2075;51.062;6.920;2023-04-28T10:31:09;50142.03;;;-144.48;100.00
4123;BME280;2075;51.062;6.920;2023-04-28T10:33:55;50142.03;;;-144.48;100.00
4123;BME280;2075;51.062;6.920;2023-04-28T10:36:58;33496.31;;;-144.48;100.00
4123;BME280;2075;51.062;6.920;2023-04-28T10:43:09;22275.22;;;-144.48;100.00
4123;BME280;2075;51.062;6.920;2023-04-28T10:45:59;26096.34;;;-144.48;100.00
4123;BME280;2075;51.062;6.920;2023-04-28T10:48:54;24822.16;;;-144.48;100.00
4123;BME280;2075;51.062;6.920;2023-04-28T10:51:40;26606.16;;;-144.48;100.00
4123;BME280;2075;51.062;6.920;2023-04-28T10:54:25;25586.63;;;-144.48;100.00
4123;BME280;2075;51.062;6.920;2023-04-28T10:57:21;30432.28;;;-144.48;100.00
4123;BME280;2075;51.062;6.920;2023-04-28T11:00:27;33496.31;;;-144.48;100.00
4123;BME280;2075;51.062;6.920;2023-04-28T11:03:39;42449.16;;;-144.48;100.00
4123;BME280;2075;51.062;6.920;2023-04-28T11:06:34;70504.06;;;-144.48;100.00
4123;BME280;2075;51.062;6.920;2023-04-28T11:09:48;81568.75;;;-144.48;100.00
4123;BME280;2075;51.062;6.920;2023-04-28T11:12:35;90480.69;;;-144.48;100.00
4123;BME280;2075;51.062;6.920;2023-04-28T11:15:21;91601.13;;;-144.48;100.00
4123;BME280;2075;51.062;6.920;2023-04-28T11:18:11;92459.97;;;-144.48;98.79
4123;BME280;2075;51.062;6.920;2023-04-28T11:21:03;92851.88;;;-144.48;92.35
4123;BME280;2075;51.062;6.920;2023-04-28T11:23:51;92782.84;;;-144.48;85.50
4123;BME280;2075;51.062;6.920;2023-04-28T11:26:38;92671.16;;;-144.48;78.07
4123;BME280;2075;51.062;6.920;2023-04-28T11:29:31;92719.88;;;-144.48;73.07
4123;BME280;2075;51.062;6.920;2023-04-28T11:32:25;92711.75;;;-144.48;74.52
4123;BME280;2075;51.062;6.920;2023-04-28T11:35:11;92658.97;;;-144.48;72.70
4123;BME280;2075;51.062;6.920;2023-04-28T11:38:01;92537.13;;;-144.48;69.99
4123;BME280;2075;51.062;6.920;2023-04-28T11:40:57;92145.22;;;-144.48;64.85
4123;BME280;2075;51.062;6.920;2023-04-28T11:43:43;92707.72;;;-144.48;65.95
4123;BME280;2075;51.062;6.920;2023-04-28T11:46:29;92543.22;;;-144.48;64.93
4123;BME280;2075;51.062;6.920;2023-04-28T11:49:14;92614.28;;;-144.48;60.33
4123;BME280;2075;51.062;6.920;2023-04-28T11:52:03;92161.47;;;-144.48;58.89
4123;BME280;2075;51.062;6.920;2023-04-28T11:54:55;92614.28;;;-144.48;63.40
4123;BME280;2075;51.062;6.920;2023-04-28T11:57:44;92620.38;;;-144.48;64.72
4123;BME280;2075;51.062;6.920;2023-04-28T12:00:30;92736.13;;;-144.48;69.79
4123;BME280;2075;51.062;6.920;2023-04-28T12:03:16;92790.97;;;-144.48;74.25
4123;BME280;2075;51.062;6.920;2023-04-28T12:06:02;92843.78;;;-144.48;73.92
4123;BME280;2075;51.062;6.920;2023-04-28T12:08:48;92855.94;;;-144.48;74.67
4123;BME280;2075;51.062;6.920;2023-04-28T12:11:34;92713.78;;;-144.48;74.17
4123;BME280;2075;51.062;6.920;2023-04-28T12:14:22;92636.63;;;-144.48;70.33
4123;BME280;2075;51.062;6.920;2023-04-28T12:17:07;92598.03;;;-144.48;65.59
4123;BME280;2075;51.062;6.920;2023-04-28T12:20:09;92640.69;;;-144.48;65.68
4123;BME280;2075;51.062;6.920;2023-04-28T12:22:54;92656.94;;;-144.48;67.67
4123;BME280;2075;51.062;6.920;2023-04-28T12:25:43;92760.50;;;-144.48;70.59
4123;BME280;2075;51.062;6.920;2023-04-28T12:28:35;92910.78;;;-144.48;74.28
4123;BME280;2075;51.062;6.920;2023-04-28T12:31:24;92801.13;;;-144.48;75.80
4123;BME280;2075;51.062;6.920;2023-04-28T12:34:09;92837.69;;;-144.48;74.94
4123;BME280;2075;51.062;6.920;2023-04-28T12:36:55;92880.31;;;-144.48;78.42
4123;BME280;2075;51.062;6.920;2023-04-28T12:39:42;92853.94;;;-144.48;74.08
4123;BME280;2075;51.062;6.920;2023-04-28T12:42:28;92788.94;;;-144.48;73.22
4123;BME280;2075;51.062;6.920;2023-04-28T12:45:14;92742.22;;;-144.48;71.95
4123;BME280;2075;51.062;6.920;2023-04-28T12:48:01;92760.50;;;-144.48;72.48
4123;BME280;2075;51.062;6.920;2023-04-28T12:50:47;92819.41;;;-144.48;73.45
4123;BME280;2075;51.062;6.920;2023-04-28T12:53:32;92902.66;;;-144.48;78.75
4123;BME280;2075;51.062;6.920;2023-04-28T12:56:18;92825.50;;;-144.48;74.09
4123;BME280;2075;51.062;6.920;2023-04-28T12:59:03;92719.88;;;-144.48;68.98
4123;BME280;2075;51.062;6.920;2023-04-28T13:01:49;92764.56;;;-144.48;70.07
4123;BME280;2075;51.062;6.920;2023-04-28T13:04:36;92870.16;;;-144.48;76.02
4123;BME280;2075;51.062;6.920;2023-04-28T13:07:23;92807.22;;;-144.48;75.86
4123;BME280;2075;51.062;6.920;2023-04-28T13:10:09;92853.94;;;-144.48;74.69
4123;BME280;2075;51.062;6.920;2023-04-28T13:12:56;93095.59;;;-144.48;84.59
4123;BME280;2075;51.062;6.920;2023-04-28T13:15:42;93030.59;;;-144.48;88.54
4123;BME280;2075;51.062;6.920;2023-04-28T13:18:29;93083.41;;;-144.48;88.50
4123;BME280;2075;51.062;6.920;2023-04-28T13:21:17;93018.41;;;-144.48;82.48
4123;BME280;2075;51.062;6.920;2023-04-28T13:24:03;92912.81;;;-144.48;79.28
4123;BME280;2075;51.062;6.920;2023-04-28T13:26:50;92845.81;;;-144.48;74.48
4123;BME280;2075;51.062;6.920;2023-04-28T13:29:35;92766.59;;;-144.48;74.25
4123;BME280;2075;51.062;6.920;2023-04-28T13:32:21;92864.06;;;-144.48;72.75
4123;BME280;2075;51.062;6.920;2023-04-28T13:35:07;92851.88;;;-144.48;70.09
4123;BME280;2075;51.062;6.920;2023-04-28T13:37:54;92815.34;;;-144.48;69.51
4123;BME280;2075;51.062;6.920;2023-04-28T13:40:45;92786.91;;;-144.48;72.73
4123;BME280;2075;51.062;6.920;2023-04-28T13:43:31;92778.78;;;-144.48;70.13
4123;BME280;2075;51.062;6.920;2023-04-28T13:46:16;92786.91;;;-144.48;71.28
4123;BME280;2075;51.062;6.920;2023-04-28T13:49:02;92801.13;;;-144.48;69.80
4123;BME280;2075;51.062;6.920;2023-04-28T13:51:47;92811.28;;;-144.48;67.21
4123;BME280;2075;51.062;6.920;2023-04-28T13:54:34;92717.84;;;-144.48;66.60
4123;BME280;2075;51.062;6.920;2023-04-28T13:57:20;92703.66;;;-144.48;65.27
4123;BME280;2075;51.062;6.920;2023-04-28T14:00:07;92626.47;;;-144.48;63.71
4123;BME280;2075;51.062;6.920;2023-04-28T14:02:53;92563.53;;;-144.48;58.96
4123;BME280;2075;51.062;6.920;2023-04-28T14:05:38;92626.47;;;-144.48;62.17
4123;BME280;2075;51.062;6.920;2023-04-28T14:08:24;92559.47;;;-144.48;60.54
4123;BME280;2075;51.062;6.920;2023-04-28T14:11:12;92555.41;;;-144.48;59.80
4123;BME280;2075;51.062;6.920;2023-04-28T14:13:57;92478.25;;;-144.48;57.50
4123;BME280;2075;51.062;6.920;2023-04-28T14:16:43;92374.69;;;-144.48;55.48
4123;BME280;2075;51.062;6.920;2023-04-28T14:19:30;92323.91;;;-144.48;52.77
4123;BME280;2075;51.062;6.920;2023-04-28T14:22:15;92470.13;;;-144.48;54.22
4123;BME280;2075;51.062;6.920;2023-04-28T14:25:01;92555.41;;;-144.48;55.73
4123;BME280;2075;51.062;6.920;2023-04-28T14:27:48;92598.03;;;-144.48;56.81
4123;BME280;2075;51.062;6.920;2023-04-28T14:30:33;92644.75;;;-144.48;56.96
4123;BME280;2075;51.062;6.920;2023-04-28T14:33:19;92622.41;;;-144.48;54.10
4123;BME280;2075;51.062;6.920;2023-04-28T14:36:04;92589.94;;;-144.48;53.51
4123;BME280;2075;51.062;6.920;2023-04-28T14:38:50;92549.31;;;-144.48;52.38
4123;BME280;2075;51.062;6.920;2023-04-28T14:41:35;92608.19;;;-144.48;52.28
4123;BME280;2075;51.062;6.920;2023-04-28T14:44:22;92679.28;;;-144.48;53.47
4123;BME280;2075;51.062;6.920;2023-04-28T14:47:09;92732.06;;;-144.48;54.25
4123;BME280;2075;51.062;6.920;2023-04-28T14:49:55;92797.06;;;-144.48;56.48
4123;BME280;2075;51.062;6.920;2023-04-28T14:52:41;92784.88;;;-144.48;56.33
4123;BME280;2075;51.062;6.920;2023-04-28T14:55:27;92616.31;;;-144.48;55.46
4123;BME280;2075;51.062;6.920;2023-04-28T14:58:15;92709.75;;;-144.48;55.98
4123;BME280;2075;51.062;6.920;2023-04-28T15:01:02;92764.56;;;-144.48;55.11
4123;BME280;2075;51.062;6.920;2023-04-28T15:03:47;92728.00;;;-144.48;57.41
4123;BME280;2075;51.062;6.920;2023-04-28T15:06:33;92827.53;;;-144.48;56.41
4123;BME280;2075;51.062;6.920;2023-04-28T15:09:20;92784.88;;;-144.48;57.64
4123;BME280;2075;51.062;6.920;2023-04-28T15:12:06;92811.28;;;-144.48;56.45
4123;BME280;2075;51.062;6.920;2023-04-28T15:14:52;92780.81;;;-144.48;56.70
4123;BME280;2075;51.062;6.920;2023-04-28T15:17:42;92839.72;;;-144.48;57.66
4123;BME280;2075;51.062;6.920;2023-04-28T15:20:32;92801.13;;;-144.48;57.14
4123;BME280;2075;51.062;6.920;2023-04-28T15:23:20;92815.34;;;-144.48;55.49
4123;BME280;2075;51.062;6.920;2023-04-28T15:26:09;92900.63;;;-144.48;56.96
4123;BME280;2075;51.062;6.920;2023-04-28T15:28:55;92876.25;;;-144.48;58.64
4123;BME280;2075;51.062;6.920;2023-04-28T15:31:42;92880.31;;;-144.48;59.69
4123;BME280;2075;51.062;6.920;2023-04-28T15:34:29;92876.25;;;-144.48;60.64
4123;BME280;2075;51.062;6.920;2023-04-28T15:37:42;92949.38;;;-144.48;62.14
4123;BME280;2075;51.062;6.920;2023-04-28T15:40:30;93010.31;;;-144.48;64.40